Time;durP1;ratioP1;P1;durP2;ratioP2;P2;SDS_P1;SDS_P2;PMS_P1;PMS_P2;Temp;Humidity;BMP_temperature;BMP_pressure;BME280_temperature;BME280_humidity;BME280_pressure;Samples;Min_cycle;Max_cycle;Signal;HPM_P1;HPM_P2
2021/09/16 00:01:47;;;;;;;6.87;4.33;;;16.00;99.90;;;;;;4984242;28;20208;-85
2021/09/16 00:04:13;;;;;;;7.30;4.40;;;16.00;99.90;;;;;;4985183;28;20180;-84
2021/09/16 00:06:39;;;;;;;8.90;4.97;;;16.00;99.90;;;;;;4983861;28;20282;-85
2021/09/16 00:09:05;;;;;;;6.27;4.43;;;15.90;99.90;;;;;;4983832;28;20180;-86
2021/09/16 00:11:30;;;;;;;5.00;3.87;;;15.90;99.90;;;;;;4983824;28;20565;-85
2021/09/16 00:13:56;;;;;;;5.33;4.30;;;15.90;99.90;;;;;;4985418;28;20184;-86
2021/09/16 00:16:22;;;;;;;4.67;4.03;;;15.90;99.90;;;;;;4984240;28;20188;-86
2021/09/16 00:18:48;;;;;;;5.23;4.53;;;15.90;99.90;;;;;;4984051;28;20200;-85
2021/09/16 00:21:14;;;;;;;5.83;5.10;;;15.90;99.90;;;;;;4984863;28;20199;-85
2021/09/16 00:23:40;;;;;;;8.70;4.13;;;15.90;99.90;;;;;;4985678;28;20179;-85
2021/09/16 00:26:06;;;;;;;7.57;4.50;;;;;;;;;;4984040;28;20663;-86
2021/09/16 00:28:32;;;;;;;8.80;4.60;;;15.90;99.90;;;;;;4985719;28;20176;-85
2021/09/16 00:30:57;;;;;;;5.07;4.23;;;15.90;99.90;;;;;;4984635;28;20551;-85
2021/09/16 00:33:23;;;;;;;7.93;5.13;;;16.00;99.90;;;;;;4985194;28;20180;-86
2021/09/16 00:35:49;;;;;;;10.40;5.60;;;16.00;99.90;;;;;;4986401;28;20195;-86
2021/09/16 00:38:14;;;;;;;7.23;3.87;;;16.00;99.90;;;;;;4987628;28;20196;-85
2021/09/16 00:40:40;;;;;;;7.03;4.60;;;16.00;99.90;;;;;;4983045;28;20172;-84
2021/09/16 00:43:06;;;;;;;5.57;4.20;;;16.00;99.90;;;;;;4990702;28;20195;-84
2021/09/16 00:45:31;;;;;;;4.10;3.70;;;16.10;99.90;;;;;;4994929;28;20176;-85
2021/09/16 00:47:58;;;;;;;6.37;4.60;;;;;;;;;;4993195;28;20759;-86
2021/09/16 00:50:24;;;;;;;8.60;4.67;;;16.10;99.90;;;;;;4983931;28;20193;-86
2021/09/16 00:52:51;;;;;;;6.33;4.47;;;16.10;99.90;;;;;;4985173;28;20177;-86
2021/09/16 00:55:19;;;;;;;5.63;4.10;;;16.10;99.90;;;;;;4984011;28;20187;-85
2021/09/16 00:57:50;;;;;;;5.00;3.80;;;16.00;99.90;;;;;;4985317;28;20211;-87
2021/09/16 01:00:17;;;;;;;6.70;4.43;;;16.10;99.90;;;;;;4984639;28;20180;-85
2021/09/16 01:02:43;;;;;;;5.53;4.20;;;16.00;99.90;;;;;;4989246;28;20196;-86
2021/09/16 01:05:09;;;;;;;5.33;4.00;;;16.00;99.90;;;;;;4989981;28;20176;-85
2021/09/16 01:07:38;;;;;;;5.10;3.67;;;16.00;99.90;;;;;;4984178;28;20243;-85
2021/09/16 01:10:04;;;;;;;5.00;4.10;;;16.00;99.90;;;;;;4982501;28;20663;-85
2021/09/16 01:12:30;;;;;;;7.33;3.90;;;16.00;99.90;;;;;;4982748;28;20206;-86
2021/09/16 01:14:55;;;;;;;8.30;4.17;;;16.00;99.90;;;;;;4983351;28;20180;-85
2021/09/16 01:17:21;;;;;;;4.57;4.10;;;15.90;99.90;;;;;;4982490;28;20223;-85
2021/09/16 01:19:48;;;;;;;4.97;3.80;;;15.90;99.90;;;;;;4982167;28;20521;-85
2021/09/16 01:22:19;;;;;;;6.50;4.30;;;15.90;99.90;;;;;;4983021;28;20196;-85
2021/09/16 01:24:45;;;;;;;7.13;4.83;;;15.90;99.90;;;;;;4983524;28;20172;-85
2021/09/16 01:27:11;;;;;;;7.03;4.87;;;15.90;99.90;;;;;;4984938;28;20173;-85
2021/09/16 01:29:37;;;;;;;7.13;4.80;;;15.90;99.90;;;;;;4982983;28;20314;-85
2021/09/16 01:32:05;;;;;;;6.10;4.70;;;15.90;99.90;;;;;;4982729;28;20200;-85
2021/09/16 01:34:31;;;;;;;5.97;4.37;;;15.90;99.90;;;;;;4982299;28;20177;-85
2021/09/16 01:36:57;;;;;;;6.37;4.00;;;15.90;99.90;;;;;;4983941;28;20199;-85
2021/09/16 01:39:23;;;;;;;7.30;4.10;;;15.90;99.90;;;;;;4983634;28;20173;-85
2021/09/16 01:41:50;;;;;;;8.03;4.13;;;15.90;99.90;;;;;;4984255;28;20228;-85
2021/09/16 01:44:16;;;;;;;5.23;3.80;;;15.90;99.90;;;;;;4982629;28;20246;-85
2021/09/16 01:46:43;;;;;;;5.43;3.93;;;15.80;99.90;;;;;;4983942;28;20176;-85
2021/09/16 01:49:09;;;;;;;6.67;4.10;;;15.80;99.90;;;;;;4982747;28;20203;-85
2021/09/16 01:51:35;;;;;;;6.17;4.33;;;15.80;99.90;;;;;;4983435;28;20201;-85
2021/09/16 01:54:01;;;;;;;8.23;3.97;;;;;;;;;;4982557;28;20188;-85
2021/09/16 01:56:27;;;;;;;5.43;4.30;;;15.70;99.90;;;;;;4984232;28;20181;-85
2021/09/16 01:58:53;;;;;;;6.27;4.77;;;15.80;99.90;;;;;;4983050;28;20674;-86
2021/09/16 02:01:19;;;;;;;7.97;4.87;;;15.70;99.90;;;;;;4983683;28;20232;-85
2021/09/16 02:03:45;;;;;;;6.40;4.50;;;15.70;99.90;;;;;;4984758;28;20184;-85
2021/09/16 02:06:11;;;;;;;4.27;3.80;;;15.70;99.90;;;;;;4986432;28;20185;-85
2021/09/16 02:08:37;;;;;;;9.33;4.53;;;15.70;99.90;;;;;;4985789;28;20185;-85
2021/09/16 02:11:03;;;;;;;10.17;4.50;;;15.70;99.90;;;;;;4983871;28;20208;-85
2021/09/16 02:13:29;;;;;;;6.93;4.50;;;15.70;99.90;;;;;;4981169;28;20639;-85
2021/09/16 02:15:55;;;;;;;8.90;4.53;;;15.60;99.90;;;;;;4986247;28;20195;-86
2021/09/16 02:18:20;;;;;;;6.43;4.77;;;15.70;99.90;;;;;;4987798;28;20204;-86
2021/09/16 02:20:46;;;;;;;5.07;4.53;;;15.70;99.90;;;;;;4987567;28;20200;-85
2021/09/16 02:23:12;;;;;;;6.23;4.40;;;;;;;;;;4988949;28;20176;-85
2021/09/16 02:25:38;;;;;;;7.40;4.27;;;15.60;99.90;;;;;;4989164;28;20180;-85
2021/09/16 02:28:04;;;;;;;5.73;4.17;;;15.70;99.90;;;;;;4987286;28;20238;-85
2021/09/16 02:30:29;;;;;;;7.03;4.30;;;15.60;99.90;;;;;;4986045;28;20194;-85
2021/09/16 02:32:55;;;;;;;4.80;4.30;;;15.60;99.90;;;;;;4985330;28;20188;-85
2021/09/16 02:35:21;;;;;;;6.90;4.83;;;;;;;;;;4986388;28;20663;-85
2021/09/16 02:37:47;;;;;;;8.30;4.50;;;;;;;;;;4984559;28;20212;-85
2021/09/16 02:40:13;;;;;;;5.83;3.47;;;15.60;99.90;;;;;;4984310;28;20177;-85
2021/09/16 02:42:40;;;;;;;5.40;4.07;;;15.60;99.90;;;;;;4983986;28;20200;-85
2021/09/16 02:45:07;;;;;;;6.40;4.47;;;15.60;99.90;;;;;;4984877;28;20262;-85
2021/09/16 02:47:33;;;;;;;5.67;4.37;;;15.60;99.90;;;;;;4982791;28;20208;-85
2021/09/16 02:49:59;;;;;;;5.77;4.83;;;;;;;;;;4981905;28;20556;-85
2021/09/16 02:52:25;;;;;;;6.57;4.17;;;15.60;99.90;;;;;;4980691;28;20240;-85
2021/09/16 02:54:51;;;;;;;6.00;4.27;;;;;;;;;;4980851;28;20184;-84
2021/09/16 02:57:16;;;;;;;6.77;5.00;;;15.70;99.90;;;;;;4990769;28;20184;-85
2021/09/16 02:59:42;;;;;;;7.70;4.50;;;;;;;;;;4999848;28;20253;-84
2021/09/16 03:02:08;;;;;;;6.77;4.40;;;15.70;99.90;;;;;;4992497;28;20231;-84
2021/09/16 03:04:34;;;;;;;7.00;4.53;;;;;;;;;;4988985;28;20192;-85
2021/09/16 03:07:00;;;;;;;8.00;4.40;;;;;;;;;;4985762;28;20184;-85
2021/09/16 03:09:26;;;;;;;6.13;5.03;;;15.70;99.90;;;;;;4984444;28;20188;-85
2021/09/16 03:11:52;;;;;;;7.60;4.63;;;15.70;99.90;;;;;;4984364;28;20223;-85
2021/09/16 03:14:18;;;;;;;7.47;4.40;;;15.70;99.90;;;;;;4985103;28;20597;-85
2021/09/16 03:16:43;;;;;;;6.80;4.47;;;15.70;99.90;;;;;;4985821;28;20190;-86
2021/09/16 03:19:09;;;;;;;6.83;4.60;;;15.70;99.90;;;;;;4985427;28;20299;-86
2021/09/16 03:21:35;;;;;;;5.80;4.73;;;15.70;99.90;;;;;;4984982;28;20200;-86
2021/09/16 03:24:00;;;;;;;4.80;4.20;;;15.70;99.90;;;;;;4985181;28;20177;-86
2021/09/16 03:26:26;;;;;;;6.80;5.00;;;15.70;99.90;;;;;;4984519;28;20187;-86
2021/09/16 03:28:52;;;;;;;5.37;4.10;;;15.70;99.90;;;;;;4984103;28;20192;-85
2021/09/16 03:31:17;;;;;;;6.57;4.90;;;15.70;99.90;;;;;;4984126;28;20208;-86
2021/09/16 03:33:43;;;;;;;7.17;4.83;;;15.60;99.90;;;;;;4985657;28;20172;-86
2021/09/16 03:36:09;;;;;;;7.00;4.63;;;15.70;99.90;;;;;;4983051;28;20227;-86
2021/09/16 03:38:35;;;;;;;6.67;4.83;;;15.70;99.90;;;;;;4983444;28;20215;-86
2021/09/16 03:41:00;;;;;;;5.97;4.53;;;15.70;99.90;;;;;;4984653;28;20198;-85
2021/09/16 03:43:27;;;;;;;7.53;4.57;;;15.70;99.90;;;;;;4983183;28;20657;-86
2021/09/16 03:45:53;;;;;;;8.50;4.90;;;15.70;99.90;;;;;;4985248;28;20173;-86
2021/09/16 03:48:18;;;;;;;6.47;4.53;;;15.70;99.90;;;;;;4983805;28;20239;-85
2021/09/16 03:50:44;;;;;;;9.80;5.37;;;15.70;99.90;;;;;;4983458;28;20178;-86
2021/09/16 03:53:10;;;;;;;6.40;4.20;;;15.70;99.90;;;;;;4982916;28;20244;-86
2021/09/16 03:55:36;;;;;;;6.03;4.23;;;15.70;99.90;;;;;;4982836;28;20180;-86
2021/09/16 03:58:01;;;;;;;4.93;4.20;;;15.70;99.90;;;;;;4984351;28;20279;-86
2021/09/16 04:00:27;;;;;;;7.33;5.40;;;;;;;;;;4982931;28;20199;-86
2021/09/16 04:02:53;;;;;;;6.20;4.80;;;15.70;99.90;;;;;;4984125;28;20179;-85
2021/09/16 04:05:22;;;;;;;10.23;5.10;;;15.70;99.90;;;;;;4985574;28;20176;-85
2021/09/16 04:07:47;;;;;;;5.77;5.03;;;15.70;99.90;;;;;;4984903;28;20192;-86
2021/09/16 04:10:13;;;;;;;7.00;4.70;;;15.60;99.90;;;;;;4988204;28;20176;-87
2021/09/16 04:12:39;;;;;;;7.80;4.80;;;;;;;;;;4988336;28;20599;-86
2021/09/16 04:15:05;;;;;;;5.33;4.57;;;15.60;99.90;;;;;;4982498;28;20190;-86
2021/09/16 04:17:31;;;;;;;7.17;4.80;;;15.60;99.90;;;;;;4982049;28;20273;-86
2021/09/16 04:19:57;;;;;;;5.77;4.60;;;15.60;99.90;;;;;;4982888;28;20212;-84
2021/09/16 04:22:23;;;;;;;8.47;5.27;;;;;;;;;;4982849;28;20205;-84
2021/09/16 04:24:49;;;;;;;6.97;5.13;;;15.60;99.90;;;;;;4982049;28;20230;-84
2021/09/16 04:27:15;;;;;;;8.83;5.00;;;15.60;99.90;;;;;;4983199;28;20626;-84
2021/09/16 04:29:41;;;;;;;7.87;4.33;;;15.60;99.90;;;;;;4982613;28;20201;-84
2021/09/16 04:32:07;;;;;;;8.00;5.07;;;15.60;99.90;;;;;;4984833;28;20207;-84
2021/09/16 04:34:33;;;;;;;10.10;4.90;;;15.60;99.90;;;;;;4982193;28;21885;-85
2021/09/16 04:36:58;;;;;;;7.77;4.77;;;15.60;99.90;;;;;;4984568;28;20258;-85
2021/09/16 04:39:24;;;;;;;7.73;4.93;;;15.60;99.90;;;;;;4982610;28;20223;-85
2021/09/16 04:41:49;;;;;;;5.83;4.70;;;15.60;99.90;;;;;;4982092;28;20200;-86
2021/09/16 04:44:15;;;;;;;5.30;4.27;;;15.60;99.90;;;;;;4982374;28;20279;-86
2021/09/16 04:46:41;;;;;;;9.63;4.73;;;15.60;99.90;;;;;;4983481;28;20244;-86
2021/09/16 04:49:07;;;;;;;5.83;4.70;;;15.60;99.90;;;;;;4981905;28;20195;-86
2021/09/16 04:51:33;;;;;;;5.27;4.13;;;15.60;99.90;;;;;;4981723;28;20705;-86
2021/09/16 04:53:58;;;;;;;7.43;4.47;;;15.60;99.90;;;;;;4980563;28;20184;-86
2021/09/16 04:56:24;;;;;;;5.97;4.60;;;15.50;99.90;;;;;;4979731;28;20195;-86
2021/09/16 04:58:50;;;;;;;5.93;3.97;;;15.60;99.90;;;;;;4979198;28;20211;-86
2021/09/16 05:01:15;;;;;;;5.73;4.30;;;15.60;99.90;;;;;;4980683;28;20562;-85
2021/09/16 05:03:42;;;;;;;5.33;4.67;;;;;;;;;;4978754;28;20539;-85
2021/09/16 05:06:07;;;;;;;7.43;4.20;;;15.60;99.90;;;;;;4979853;28;20180;-86
2021/09/16 05:08:33;;;;;;;13.10;4.33;;;15.60;99.90;;;;;;4978936;28;20188;-85
2021/09/16 05:10:58;;;;;;;6.87;4.47;;;15.60;99.90;;;;;;4979055;28;20207;-86
2021/09/16 05:13:24;;;;;;;8.63;4.47;;;15.60;99.90;;;;;;4976584;28;20262;-85
2021/09/16 05:15:50;;;;;;;8.60;4.80;;;15.60;99.90;;;;;;4984812;28;20180;-85
2021/09/16 05:18:15;;;;;;;9.70;4.93;;;15.70;99.90;;;;;;4992701;28;20203;-85
2021/09/16 05:20:41;;;;;;;9.37;5.17;;;15.70;99.90;;;;;;4995424;28;20161;-85
2021/09/16 05:23:07;;;;;;;10.63;4.90;;;;;;;;;;4991717;28;20193;-86
2021/09/16 05:25:33;;;;;;;7.47;4.73;;;15.70;99.90;;;;;;4982119;28;20281;-85
2021/09/16 05:27:58;;;;;;;6.60;4.60;;;15.70;99.90;;;;;;4984470;28;20184;-86
2021/09/16 05:30:25;;;;;;;8.70;4.90;;;15.70;99.90;;;;;;4982778;28;20179;-85
2021/09/16 05:32:51;;;;;;;6.83;4.77;;;15.70;99.90;;;;;;4982509;28;20255;-85
2021/09/16 05:35:16;;;;;;;7.00;4.20;;;15.70;99.90;;;;;;4983573;28;20251;-86
2021/09/16 05:37:42;;;;;;;9.73;4.90;;;15.70;99.90;;;;;;4983743;28;20517;-86
2021/09/16 05:40:10;;;;;;;9.07;5.60;;;15.70;99.90;;;;;;4987664;28;20181;-86
2021/09/16 05:42:36;;;;;;;8.60;4.83;;;15.80;99.90;;;;;;4986385;28;20203;-86
2021/09/16 05:45:06;;;;;;;6.37;4.43;;;15.80;99.90;;;;;;4986344;28;20211;-85
2021/09/16 05:47:32;;;;;;;7.80;4.60;;;15.80;99.90;;;;;;4987775;28;20627;-85
2021/09/16 05:49:57;;;;;;;8.53;5.33;;;15.80;99.90;;;;;;4987877;28;20195;-87
2021/09/16 05:52:23;;;;;;;6.13;4.60;;;15.90;99.90;;;;;;4985942;28;20208;-86
2021/09/16 05:54:49;;;;;;;8.60;4.93;;;15.80;99.90;;;;;;4986261;28;20188;-84
2021/09/16 05:57:15;;;;;;;8.20;4.77;;;15.90;99.90;;;;;;4984114;28;20649;-86
2021/09/16 05:59:40;;;;;;;8.17;5.07;;;15.90;99.90;;;;;;4987482;28;20176;-86
2021/09/16 06:02:06;;;;;;;8.10;4.80;;;16.00;99.90;;;;;;4992318;28;20714;-87
2021/09/16 06:04:32;;;;;;;6.77;5.30;;;16.00;99.90;;;;;;4987715;28;20231;-86
2021/09/16 06:07:03;;;;;;;7.50;4.80;;;16.10;99.90;;;;;;4985319;28;20538;-86
2021/09/16 06:09:29;;;;;;;7.63;4.77;;;16.10;99.90;;;;;;4984065;28;20240;-86
2021/09/16 06:11:55;;;;;;;9.43;3.97;;;16.20;99.90;;;;;;4984501;28;20735;-85
2021/09/16 06:14:21;;;;;;;9.97;4.43;;;16.10;99.90;;;;;;4985004;28;20216;-86
2021/09/16 06:16:46;;;;;;;7.77;4.90;;;16.10;99.90;;;;;;4986783;28;20192;-86
2021/09/16 06:19:12;;;;;;;8.60;5.23;;;16.20;99.90;;;;;;4985098;28;20259;-86
2021/09/16 06:21:39;;;;;;;9.73;5.00;;;16.20;99.90;;;;;;4986197;28;20210;-85
2021/09/16 06:24:05;;;;;;;6.27;4.40;;;16.20;99.90;;;;;;4982703;28;20211;-86
2021/09/16 06:26:31;;;;;;;10.07;4.67;;;16.10;99.90;;;;;;4983093;28;20173;-86
2021/09/16 06:28:57;;;;;;;7.00;4.67;;;16.20;99.90;;;;;;4982787;28;20216;-85
2021/09/16 06:31:22;;;;;;;11.03;4.67;;;16.20;99.90;;;;;;4983081;28;20286;-86
2021/09/16 06:33:48;;;;;;;8.77;4.73;;;16.30;99.90;;;;;;4982656;28;20181;-85
2021/09/16 06:36:13;;;;;;;11.53;5.17;;;16.20;99.90;;;;;;4983536;28;20200;-86
2021/09/16 06:38:39;;;;;;;7.07;4.43;;;16.20;99.90;;;;;;4982685;28;20743;-86
2021/09/16 06:41:05;;;;;;;7.43;4.27;;;16.30;99.90;;;;;;4981774;28;20371;-85
2021/09/16 06:43:31;;;;;;;6.77;4.00;;;16.30;99.90;;;;;;4982377;28;20204;-86
2021/09/16 06:45:56;;;;;;;7.33;4.30;;;16.20;99.90;;;;;;4980901;28;20200;-86
2021/09/16 06:48:22;;;;;;;10.60;4.70;;;16.30;99.90;;;;;;4981056;28;20186;-86
2021/09/16 06:50:48;;;;;;;5.60;4.10;;;16.30;99.90;;;;;;4981595;28;20570;-85
2021/09/16 06:53:13;;;;;;;9.93;4.87;;;16.30;99.90;;;;;;4981199;28;20195;-86
2021/09/16 06:55:39;;;;;;;7.30;4.57;;;16.20;99.90;;;;;;4982910;28;20207;-85
2021/09/16 06:58:05;;;;;;;9.00;4.57;;;16.20;99.90;;;;;;4981418;28;20315;-86
2021/09/16 07:00:30;;;;;;;7.13;4.97;;;16.20;99.90;;;;;;4980899;28;20185;-86
2021/09/16 07:02:56;;;;;;;10.63;4.93;;;16.20;99.90;;;;;;4982259;28;20184;-85
2021/09/16 07:05:22;;;;;;;10.23;4.60;;;16.30;99.90;;;;;;4980438;28;20176;-86
2021/09/16 07:07:48;;;;;;;6.60;4.00;;;16.30;99.90;;;;;;4980278;28;20197;-86
2021/09/16 07:10:13;;;;;;;5.53;4.43;;;16.30;99.90;;;;;;4980312;28;20232;-86
2021/09/16 07:12:39;;;;;;;7.80;5.03;;;16.30;99.90;;;;;;4979678;28;20688;-85
2021/09/16 07:15:06;;;;;;;6.60;4.17;;;16.30;99.90;;;;;;4980873;28;20188;-85
2021/09/16 07:17:32;;;;;;;10.50;4.60;;;16.40;99.90;;;;;;4978821;28;20818;-85
2021/09/16 07:19:57;;;;;;;6.87;5.20;;;16.40;99.90;;;;;;4978405;28;20186;-85
2021/09/16 07:22:23;;;;;;;6.53;4.47;;;16.40;99.90;;;;;;4978382;28;20200;-86
2021/09/16 07:24:49;;;;;;;9.63;5.17;;;16.40;99.90;;;;;;4978455;28;20550;-85
2021/09/16 07:27:14;;;;;;;6.63;4.70;;;16.30;99.90;;;;;;4978780;28;20177;-85
2021/09/16 07:29:40;;;;;;;9.20;4.90;;;16.40;99.90;;;;;;4976754;28;20181;-85
2021/09/16 07:32:07;;;;;;;6.80;4.40;;;16.40;99.90;;;;;;4977067;28;20201;-84
2021/09/16 07:34:33;;;;;;;7.33;4.53;;;16.40;99.90;;;;;;4978649;28;20193;-84
2021/09/16 07:36:58;;;;;;;7.00;4.60;;;16.40;99.90;;;;;;4990285;28;20180;-84
2021/09/16 07:39:24;;;;;;;7.97;5.13;;;16.40;99.90;;;;;;4996847;28;20204;-84
2021/09/16 07:41:50;;;;;;;6.50;4.87;;;;;;;;;;4999974;28;20204;-84
2021/09/16 07:44:17;;;;;;;5.97;4.77;;;16.40;99.90;;;;;;4992530;28;20180;-85
2021/09/16 07:46:43;;;;;;;8.13;5.43;;;16.40;99.90;;;;;;4987053;28;20176;-85
2021/09/16 07:49:09;;;;;;;9.13;5.20;;;16.60;99.90;;;;;;4990753;28;20215;-86
2021/09/16 07:51:35;;;;;;;7.70;5.20;;;16.60;99.90;;;;;;4987395;28;20232;-86
2021/09/16 07:54:00;;;;;;;6.50;5.23;;;16.60;99.90;;;;;;4988418;28;20528;-86
2021/09/16 07:56:26;;;;;;;7.60;5.10;;;16.70;99.90;;;;;;4990637;28;20181;-85
2021/09/16 07:58:52;;;;;;;8.87;5.57;;;16.70;99.90;;;;;;4988655;28;20613;-86
2021/09/16 08:01:18;;;;;;;9.57;5.37;;;16.80;99.90;;;;;;4981518;28;20211;-85
2021/09/16 08:03:43;;;;;;;10.13;4.97;;;16.90;99.90;;;;;;4981197;28;20208;-86
2021/09/16 08:06:09;;;;;;;7.17;4.77;;;;;;;;;;4982701;28;20204;-86
2021/09/16 08:08:35;;;;;;;8.47;5.77;;;16.90;99.90;;;;;;4982074;28;20188;-86
2021/09/16 08:11:01;;;;;;;8.67;5.50;;;17.00;99.90;;;;;;4981899;28;20287;-85
2021/09/16 08:13:27;;;;;;;10.43;5.50;;;17.00;99.90;;;;;;4983669;28;20202;-85
2021/09/16 08:15:54;;;;;;;10.03;5.40;;;17.20;99.90;;;;;;4982090;28;20195;-85
2021/09/16 08:18:20;;;;;;;7.77;5.87;;;17.20;99.90;;;;;;4982861;28;20208;-85
2021/09/16 08:20:50;;;;;;;8.33;5.13;;;17.50;99.90;;;;;;4982846;28;20545;-86
2021/09/16 08:23:20;;;;;;;8.00;5.00;;;17.50;99.90;;;;;;4983683;28;20175;-85
2021/09/16 08:25:46;;;;;;;8.93;5.43;;;17.50;99.90;;;;;;4982070;28;20266;-85
2021/09/16 08:28:13;;;;;;;12.97;6.27;;;17.60;99.90;;;;;;4983048;28;20180;-85
2021/09/16 08:30:40;;;;;;;15.80;5.30;;;17.90;99.90;;;;;;4983165;28;20195;-85
2021/09/16 08:33:06;;;;;;;14.03;6.67;;;17.90;99.90;;;;;;4983351;28;20184;-85
2021/09/16 08:35:32;;;;;;;9.37;5.93;;;18.10;99.90;;;;;;4982923;28;20199;-85
2021/09/16 08:37:58;;;;;;;6.27;5.40;;;18.20;99.90;;;;;;4981961;28;20231;-85
2021/09/16 08:40:24;;;;;;;7.30;5.67;;;18.20;99.90;;;;;;4981203;28;20203;-86
2021/09/16 08:42:51;;;;;;;8.90;6.57;;;18.30;99.90;;;;;;4981793;28;20200;-85
2021/09/16 08:45:20;;;;;;;7.07;5.43;;;18.30;99.90;;;;;;4981388;28;20278;-85
2021/09/16 08:47:47;;;;;;;9.50;5.53;;;18.30;99.90;;;;;;4982900;28;20211;-85
2021/09/16 08:50:15;;;;;;;7.83;5.80;;;18.30;99.90;;;;;;4982126;28;20192;-86
2021/09/16 08:52:43;;;;;;;10.43;5.70;;;18.30;99.90;;;;;;4982105;28;20208;-85
2021/09/16 08:55:11;;;;;;;6.10;5.43;;;18.30;99.90;;;;;;4981787;28;20188;-86
2021/09/16 08:57:40;;;;;;;8.33;5.23;;;18.40;99.90;;;;;;4981857;28;20209;-86
2021/09/16 09:00:18;;;;;;;8.13;5.93;;;18.50;99.90;;;;;;4982490;28;20548;-86
2021/09/16 09:02:45;;;;;;;29.37;11.40;;;18.80;99.90;;;;;;4982105;28;20204;-85
2021/09/16 09:05:11;;;;;;;44.27;17.77;;;19.00;99.90;;;;;;4982107;28;20180;-86
2021/09/16 09:07:46;;;;;;;17.20;8.07;;;19.10;99.90;;;;;;4981484;28;20193;-85
2021/09/16 09:10:33;;;;;;;8.97;5.37;;;19.10;99.90;;;;;;4984353;28;20183;-85
2021/09/16 09:13:00;;;;;;;6.33;3.83;;;19.10;99.90;;;;;;4984407;28;20248;-86
2021/09/16 09:15:26;;;;;;;9.20;4.17;;;19.00;99.90;;;;;;4987065;28;20553;-86
2021/09/16 09:18:17;;;;;;;5.90;4.17;;;18.90;99.90;;;;;;4986621;28;20216;-86
2021/09/16 09:21:03;;;;;;;6.37;3.13;;;18.90;99.90;;;;;;4986379;28;20589;-85
2021/09/16 09:23:35;;;;;;;7.57;4.50;;;18.90;99.90;;;;;;4986251;28;20208;-86
2021/09/16 09:26:35;;;;;;;4.80;3.00;;;18.80;99.90;;;;;;4987263;28;20168;-86
2021/09/16 09:29:06;;;;;;;6.50;3.57;;;18.60;99.90;;;;;;4986475;28;20195;-86
2021/09/16 09:31:33;;;;;;;5.00;3.30;;;18.50;99.90;;;;;;4988043;28;20200;-86
2021/09/16 09:33:59;;;;;;;6.40;4.20;;;18.50;99.90;;;;;;4986769;28;20185;-87
2021/09/16 09:36:25;;;;;;;6.27;3.77;;;18.40;99.90;;;;;;4987535;28;20211;-86
2021/09/16 09:38:59;;;;;;;6.60;3.93;;;18.40;99.90;;;;;;4987428;28;20219;-86
2021/09/16 09:41:27;;;;;;;6.83;3.60;;;18.20;99.90;;;;;;4990710;28;20220;-86
2021/09/16 09:44:11;;;;;;;10.50;3.77;;;18.20;99.90;;;;;;4989753;28;20179;-86
2021/09/16 09:46:50;;;;;;;5.63;3.40;;;18.10;99.90;;;;;;4998629;28;20179;-86
2021/09/16 09:49:23;;;;;;;5.30;3.10;;;18.10;99.90;;;;;;4997088;28;20177;-86
2021/09/16 09:51:57;;;;;;;10.20;3.57;;;18.00;99.90;;;;;;4988224;28;20225;-85
2021/09/16 09:54:40;;;;;;;4.20;2.60;;;18.10;99.90;;;;;;4981163;28;20161;-85
2021/09/16 09:57:18;;;;;;;4.13;2.93;;;18.10;99.90;;;;;;4979923;28;20191;-85
2021/09/16 09:59:56;;;;;;;4.37;2.97;;;18.20;99.90;;;;;;4979600;28;20215;-85
2021/09/16 10:02:41;;;;;;;4.83;3.03;;;18.20;99.90;;;;;;4979007;28;20192;-84
2021/09/16 10:05:27;;;;;;;4.43;2.93;;;18.20;99.90;;;;;;4979201;28;20172;-85
2021/09/16 10:07:55;;;;;;;3.47;2.90;;;18.20;99.90;;;;;;4982373;28;20631;-84
2021/09/16 10:10:21;;;;;;;3.57;2.53;;;18.20;99.90;;;;;;4984711;28;20530;-84
2021/09/16 10:12:51;;;;;;;8.20;3.63;;;18.40;99.90;;;;;;4983033;28;20541;-84
2021/09/16 10:15:19;;;;;;;7.03;2.80;;;18.60;99.90;;;;;;4983779;28;20181;-84
2021/09/16 10:17:46;;;;;;;3.60;2.70;;;19.10;99.90;;;;;;4983289;28;20288;-84
2021/09/16 10:20:17;;;;;;;7.03;2.70;;;19.40;99.90;;;;;;4983970;28;20183;-84
2021/09/16 10:22:52;;;;;;;3.10;2.63;;;19.70;99.90;;;;;;4982036;28;20225;-84
2021/09/16 10:25:21;;;;;;;4.00;2.50;;;20.10;99.90;;;;;;4982596;28;20182;-84
2021/09/16 10:27:59;;;;;;;5.30;2.50;;;20.50;99.90;;;;;;4984877;28;20178;-84
2021/09/16 10:30:24;;;;;;;5.13;2.60;;;20.40;99.90;;;;;;4984087;28;20166;-83
2021/09/16 10:33:10;;;;;;;6.20;2.63;;;20.10;99.90;;;;;;4984346;28;20236;-83
2021/09/16 10:35:41;;;;;;;3.50;3.00;;;19.70;99.90;;;;;;4984618;28;20193;-84
2021/09/16 10:38:21;;;;;;;6.10;3.07;;;19.40;99.90;;;;;;4981238;28;20198;-85
2021/09/16 10:40:48;;;;;;;6.77;2.77;;;19.00;99.90;;;;;;4980436;28;20185;-86
2021/09/16 10:43:24;;;;;;;4.07;2.90;;;18.90;99.90;;;;;;4980460;28;20507;-86
2021/09/16 10:45:51;;;;;;;4.33;2.33;;;18.90;99.90;;;;;;4981632;28;20528;-86
2021/09/16 10:48:16;;;;;;;5.77;2.57;;;18.70;99.90;;;;;;4980944;28;20223;-86
2021/09/16 10:50:59;;;;;;;2.40;2.20;;;18.40;99.90;;;;;;4981023;28;20221;-86
2021/09/16 10:53:37;;;;;;;3.73;2.33;;;18.40;99.90;;;;;;4993979;28;20173;-86
2021/09/16 10:56:31;;;;;;;3.50;2.50;;;18.30;99.90;;;;;;4981932;28;20260;-86
2021/09/16 10:58:58;;;;;;;4.13;2.40;;;18.00;99.90;;;;;;4982725;28;20196;-86
2021/09/16 11:01:53;;;;;;;3.77;2.10;;;18.00;99.90;;;;;;4982978;28;20188;-85
2021/09/16 11:04:19;;;;;;;2.63;1.80;;;18.00;99.90;;;;;;4981573;28;20345;-86
2021/09/16 11:06:45;;;;;;;3.60;2.10;;;18.00;99.90;;;;;;4980939;28;20317;-86
2021/09/16 11:09:12;;;;;;;4.27;2.13;;;18.10;99.90;;;;;;4982392;28;20179;-86
2021/09/16 11:12:02;;;;;;;2.80;2.00;;;18.10;99.90;;;;;;4982628;28;20258;-86
2021/09/16 11:14:40;;;;;;;4.57;2.50;;;18.20;99.90;;;;;;4983503;28;20646;-86
2021/09/16 11:17:09;;;;;;;2.97;2.30;;;18.30;99.90;;;;;;4981656;28;20641;-86
2021/09/16 11:19:44;;;;;;;4.23;2.60;;;18.40;99.90;;;;;;4981856;28;20210;-86
2021/09/16 11:22:10;;;;;;;3.67;2.27;;;18.80;99.90;;;;;;4984550;28;20218;-86
2021/09/16 11:24:42;;;;;;;2.73;2.23;;;19.30;99.90;;;;;;4982758;28;20186;-86
2021/09/16 11:27:10;;;;;;;3.93;2.43;;;20.30;99.90;;;;;;4986923;28;20205;-86
2021/09/16 11:29:46;;;;;;;2.93;2.10;;;21.00;99.90;;;;;;4985307;28;20300;-86
2021/09/16 11:32:16;;;;;;;3.07;2.30;;;21.60;99.90;;;;;;4980424;28;20200;-85
2021/09/16 11:34:56;;;;;;;2.67;1.87;;;22.40;99.90;;;;;;4981703;28;20467;-86
2021/09/16 11:37:28;;;;;;;4.03;2.20;;;23.60;99.90;;;;;;4979740;28;20203;-86
2021/09/16 11:40:05;;;;;;;3.47;2.43;;;24.40;99.90;;;;;;4980714;28;20177;-86
2021/09/16 11:42:33;;;;;;;2.43;2.10;;;24.00;99.90;;;;;;4980570;28;20216;-85
2021/09/16 11:45:17;;;;;;;5.10;2.77;;;23.10;99.90;;;;;;4982342;28;20184;-85
2021/09/16 11:47:54;;;;;;;3.53;2.30;;;22.00;99.90;;;;;;4982979;28;20168;-85
2021/09/16 11:50:38;;;;;;;2.77;2.47;;;21.30;99.90;;;;;;4983536;28;20172;-85
2021/09/16 11:53:12;;;;;;;5.00;2.77;;;21.00;99.90;;;;;;4982747;28;20701;-85
2021/09/16 11:55:43;;;;;;;3.20;2.40;;;20.80;99.90;;;;;;4981362;28;20168;-85
2021/09/16 11:58:35;;;;;;;6.07;2.23;;;21.30;99.90;;;;;;4979978;28;20637;-85
2021/09/16 12:01:06;;;;;;;2.57;2.37;;;21.50;99.90;;;;;;4982524;28;20200;-85
2021/09/16 12:03:37;;;;;;;4.67;3.00;;;22.00;99.90;;;;;;4982966;28;20705;-85
2021/09/16 12:06:16;;;;;;;3.17;2.23;;;23.70;99.90;;;;;;4982900;28;20691;-85
2021/09/16 12:08:52;;;;;;;2.47;2.10;;;24.30;99.90;;;;;;4983092;28;20188;-85
2021/09/16 12:11:22;;;;;;;4.17;2.10;;;23.70;99.90;;;;;;4984849;28;20417;-83
2021/09/16 12:13:47;;;;;;;4.67;2.37;;;23.70;99.90;;;;;;4982094;28;20185;-85
2021/09/16 12:16:16;;;;;;;2.67;1.93;;;24.10;99.90;;;;;;4982760;28;20184;-85
2021/09/16 12:18:44;;;;;;;3.50;2.30;;;23.60;99.90;;;;;;4979964;28;20683;-84
2021/09/16 12:21:17;;;;;;;3.37;2.20;;;23.00;99.90;;;;;;4982459;28;20718;-84
2021/09/16 12:23:50;;;;;;;3.97;2.17;;;22.40;99.90;;;;;;4982650;28;20208;-84
2021/09/16 12:26:18;;;;;;;2.50;2.03;;;21.60;99.90;;;;;;4985610;28;20168;-82
2021/09/16 12:29:05;;;;;;;3.17;2.47;;;21.30;99.90;;;;;;4986297;28;20233;-85
2021/09/16 12:31:33;;;;;;;2.20;2.00;;;21.40;99.90;;;;;;4981842;28;20202;-84
2021/09/16 12:34:05;;;;;;;3.17;2.30;;;21.70;99.90;;;;;;4981944;28;20191;-84
2021/09/16 12:36:33;;;;;;;2.53;2.17;;;21.90;99.90;;;;;;4981552;28;20200;-84
2021/09/16 12:39:12;;;;;;;3.17;2.50;;;22.20;99.90;;;;;;4983064;28;20215;-84
2021/09/16 12:41:50;;;;;;;3.30;1.90;;;23.30;99.90;;;;;;4980624;28;20202;-83
2021/09/16 12:44:17;;;;;;;3.50;1.80;;;24.50;99.90;;;;;;4979195;28;20180;-85
2021/09/16 12:47:05;;;;;;;3.67;1.60;;;24.80;99.90;;;;;;4980698;28;20182;-83
2021/09/16 12:49:42;;;;;;;3.77;1.90;;;24.30;99.90;;;;;;4979259;28;20265;-83
2021/09/16 12:52:11;;;;;;;3.50;1.47;;;25.20;99.90;;;;;;4980119;28;20206;-83
2021/09/16 12:54:46;;;;;;;2.10;1.40;;;26.90;99.90;;;;;;4981634;28;20183;-84
2021/09/16 12:57:13;;;;;;;2.13;1.43;;;26.20;99.90;;;;;;4982627;28;20202;-82
2021/09/16 12:59:43;;;;;;;2.70;1.70;;;25.30;99.90;;;;;;4982177;28;20225;-83